• Join FlightAware (Why Join?)
  • Login
  • US Flag 
01:17AM EDT


 

Airport Tracker/Info


-or-


 

Live Flight TrackerFlight Track Log ✈ LBQ792 ✈ 04-May-2013 ✈ KBWI - KPTW

Flight Track Log - Related Links

Times and Time Zones

All times are in EDT time to prevent confusion due to time zone crossing. See the LBQ792 flight status page for this flight to view local times or setup timezone preferences in your user account.

Time Position Orientation Groundspeed Altitude Reporting Facility
EDT Latitude Longitude Course Direction KTS MPH feet Rate Location/Type
02:17AM 39.2333 -76.5833 38° Northeast 146 168 4,500  Level Potomac TRACON
02:18AM 39.2667 -76.5500 38° Northeast 154 177 6,200 1,200 Climbing Potomac TRACON
02:19AM 39.3000 -76.5167 38° Northeast 186 214 7,000 300 Climbing Potomac TRACON
02:20AM 39.3500 -76.4667 38° Northeast 221 254 6,900 -60 Descending Potomac TRACON
02:21AM 39.4000 -76.4167 38° Northeast 226 260 6,900  Level Potomac TRACON
02:22AM 39.4186 -76.3932 39° Northeast  Level FlightAware Approximate
02:24AM 39.4618 -76.3515 39° Northeast  Level FlightAware Approximate
02:26AM 39.6333 -76.1667 39° Northeast 230 265 7,000  Level Philadelphia TRACON
02:27AM 39.6833 -76.1167 38° Northeast 228 262 7,000 -180 Level Philadelphia TRACON
02:28AM 39.7333 -76.0667 38° Northeast 232 267 6,700 -480 Descending Philadelphia TRACON
02:29AM 39.7833 -76.0167 38° Northeast 241 277 6,100 -600 Descending Philadelphia TRACON
02:30AM 39.8333 -75.9667 38° Northeast 240 276 5,600 -540 Descending Philadelphia TRACON
02:31AM 39.7738 -76.0201 39° Northeast  Level FlightAware Approximate
02:31AM 39.9000 -75.9167 30° Northeast 241 277 5,100  Level Philadelphia TRACON
02:32AM 39.9500 -75.8667 37° Northeast 233 268 5,000 -420 Descending Philadelphia TRACON
02:33AM 40.0167 -75.8167 30° Northeast 232 267 4,300 -660 Descending Philadelphia TRACON
02:35AM 40.0534 -75.7299 37° Northeast  Level FlightAware Approximate
02:42AM 40.2333 -75.5500 37° Northeast  Level FlightAware Approximate
02:43AM 40.2396 -75.5567 37° Northeast  Level Estimated
02:44AM 40.2396 -75.5567 37° Northeast  Level Estimated
02:45AM 40.2396 -75.5567 37° Northeast  Level Estimated
02:46AM 40.2396 -75.5567 37° Northeast  Level Estimated
02:47AM 40.2396 -75.5567 37° Northeast  Level Estimated
02:48AM 40.2396 -75.5567 37° Northeast  Level Estimated
02:49AM 40.2396 -75.5567 37° Northeast  Level Estimated
02:50AM 40.2396 -75.5567 37° Northeast  Level Estimated
02:51AM 40.2396 -75.5567 37° Northeast  Level Estimated
02:52AM 40.2396 -75.5567 37° Northeast  Level Estimated
02:53AM 40.2396 -75.5567 37° Northeast  Level Estimated